Terminal Aerodrome Forecast
Issued by NWS Duluth, MN

Home | Current Version | Previous Version | Text Only | Print | Product List | Glossary On
Versions: 1 2 3 4 5 6 7 8 9 10 11 12 13 14 15 16 17 18 19 20 21 22 23 24 25 26 27
000
FTUS43 KDLH 230156 AAB
TAFDLH
TAF AMD
KDLH 230156Z 2302/2324 34004KT P6SM BKN004 OVC017
     FM230400 30005KT 4SM BR OVC008
     FM231200 28004KT 1 1/2SM BR OVC004
     FM231800 29005KT 6SM BR OVC007=

USA.gov is the U.S. government's official web portal to all federal, state and local government web resources and services.